Mandeville, Louisiana
Current Conditions -  °F | °C
As of 3:53 PM on Friday 28 Nov 2014 (Local Time) from KASD Reporting Station
Clear Clear  
Wind Chill: 56°   Ceiling: Unl
Heat Index: 56°   Visibility: 10mi
Dew Point: 36°   Wind: 9mph
Humidity: 47%   Direction: 170°S
Pressure: 30.3"   Gusts: NA
Location:  30.37°N, 90.08°W
Report Text: KASD 282153Z AUTO 17008KT 10SM CLR 13/02 A3030 RMK AO2 SLP261 T01330022
Loading
Personal Weather Stations






























Interactive Weather Map New forecast layout! Learn more

10-Day Weather Forecast

Advertisements
Track Severe Weather on mobile